createdAt,value
2019-03-26T00:01:16.283Z,5.53
2019-03-26T00:06:20.094Z,5.71
2019-03-26T00:11:23.593Z,5.71
2019-03-26T00:16:27.033Z,5.77
2019-03-26T00:21:31.266Z,5.72
2019-03-26T00:26:35.143Z,5.53
2019-03-26T00:31:39.017Z,5.56
2019-03-26T00:36:42.439Z,5.34
2019-03-26T00:41:45.964Z,5.31
2019-03-26T00:46:49.369Z,5.52
2019-03-26T00:51:53.497Z,5.47
2019-03-26T00:56:56.911Z,5.48
2019-03-26T01:02:00.838Z,5.45
2019-03-26T01:07:04.728Z,5.49
2019-03-26T01:12:08.584Z,5.24
2019-03-26T01:17:12.518Z,5.41
2019-03-26T01:22:16.690Z,5.28
2019-03-26T01:27:19.359Z,5.29
2019-03-26T01:32:23.173Z,5.11
2019-03-26T01:37:27.589Z,5.04
2019-03-26T01:42:34.508Z,5.02
2019-03-26T01:47:38.333Z,5.00
2019-03-26T01:52:42.490Z,5.08
2019-03-26T01:57:46.727Z,4.84
2019-03-26T02:02:50.468Z,4.67
2019-03-26T02:07:55.811Z,4.74
2019-03-26T02:12:59.719Z,4.79
2019-03-26T02:18:02.872Z,4.86
2019-03-26T02:23:06.629Z,4.76
2019-03-26T02:28:13.197Z,4.75
2019-03-26T02:33:16.739Z,4.79
2019-03-26T02:38:20.177Z,4.81
2019-03-26T02:43:24.389Z,4.62
2019-03-26T02:48:27.805Z,4.67
2019-03-26T02:53:30.917Z,4.74
2019-03-26T02:58:34.744Z,4.67
2019-03-26T03:03:38.915Z,4.60
2019-03-26T03:08:42.701Z,4.63
2019-03-26T03:13:46.525Z,4.62
2019-03-26T03:18:49.955Z,4.61
2019-03-26T03:23:53.868Z,4.48
2019-03-26T03:28:58.101Z,4.58
2019-03-26T03:34:02.091Z,4.57
2019-03-26T03:39:07.096Z,4.82
2019-03-26T03:44:10.188Z,4.84
2019-03-26T03:49:16.056Z,4.96
2019-03-26T03:54:20.706Z,5.00
2019-03-26T03:59:26.020Z,4.88
2019-03-26T04:04:29.889Z,4.96
2019-03-26T04:09:33.996Z,4.94
2019-03-26T04:14:37.905Z,5.06
2019-03-26T04:19:41.876Z,5.26
2019-03-26T04:24:45.694Z,5.44
2019-03-26T04:29:49.472Z,5.41
2019-03-26T04:34:52.829Z,5.49
2019-03-26T04:39:56.653Z,5.61
2019-03-26T04:45:00.486Z,5.65
2019-03-26T04:50:04.671Z,5.81
2019-03-26T04:55:08.609Z,5.76
2019-03-26T05:00:12.483Z,5.83
2019-03-26T05:05:16.292Z,5.89
2019-03-26T05:10:19.519Z,5.71
2019-03-26T05:15:23.685Z,5.66
2019-03-26T05:20:27.525Z,5.73
2019-03-26T05:25:30.645Z,5.80
2019-03-26T05:30:34.141Z,5.69
2019-03-26T05:35:37.912Z,5.66
2019-03-26T05:40:41.956Z,5.76
2019-03-26T05:45:45.414Z,5.83
2019-03-26T05:50:49.177Z,5.79
2019-03-26T05:55:52.262Z,5.84
2019-03-26T06:00:56.282Z,6.01
2019-03-26T06:05:59.497Z,6.15
2019-03-26T06:11:02.617Z,6.05
2019-03-26T06:16:05.690Z,6.02
2019-03-26T06:21:08.747Z,6.14
2019-03-26T06:26:12.579Z,6.09
2019-03-26T06:31:16.466Z,6.17
2019-03-26T06:36:19.919Z,6.27
2019-03-26T06:41:24.105Z,6.14
2019-03-26T06:46:27.963Z,6.30
2019-03-26T06:51:31.801Z,6.32
2019-03-26T06:56:35.291Z,6.39
2019-03-26T07:01:39.148Z,6.37
2019-03-26T07:06:43.367Z,6.40
2019-03-26T07:11:46.462Z,6.29
2019-03-26T07:16:50.309Z,6.50
2019-03-26T07:21:54.119Z,6.51
2019-03-26T07:26:58.557Z,6.68
2019-03-26T07:32:02.663Z,7.07
2019-03-26T07:37:06.855Z,7.11
2019-03-26T07:42:11.073Z,7.12
2019-03-26T07:47:14.890Z,7.09
2019-03-26T07:52:18.296Z,6.82
2019-03-26T07:57:22.482Z,7.31
2019-03-26T08:02:25.539Z,7.17
2019-03-26T08:07:29.369Z,7.22
2019-03-26T08:12:33.019Z,7.22
2019-03-26T08:17:36.286Z,7.32
2019-03-26T08:22:39.717Z,7.30
2019-03-26T08:27:43.188Z,7.28
2019-03-26T08:32:47.048Z,7.32
2019-03-26T08:37:50.856Z,7.60
2019-03-26T08:42:55.016Z,7.89
2019-03-26T08:47:59.194Z,7.77
2019-03-26T08:53:03.069Z,7.65
2019-03-26T08:58:07.302Z,7.68
2019-03-26T09:03:11.359Z,7.53
2019-03-26T09:08:24.888Z,7.63
2019-03-26T09:13:20.571Z,7.67
2019-03-26T09:18:23.266Z,7.61
2019-03-26T09:23:26.734Z,7.69
2019-03-26T09:28:30.972Z,7.82
2019-03-26T09:33:34.662Z,7.67
2019-03-26T09:38:39.491Z,7.71
2019-03-26T09:43:43.271Z,7.97
2019-03-26T09:48:47.013Z,7.85
2019-03-26T09:53:50.812Z,7.87
2019-03-26T09:58:54.329Z,7.92
2019-03-26T10:03:58.557Z,7.92
2019-03-26T10:09:02.480Z,8.18
2019-03-26T10:14:05.907Z,8.28
2019-03-26T10:19:10.068Z,8.06
2019-03-26T10:24:13.613Z,7.97
2019-03-26T10:29:29.568Z,8.27
2019-03-26T10:34:22.920Z,8.50
2019-03-26T10:39:26.686Z,8.43
2019-03-26T10:44:30.554Z,8.68
2019-03-26T10:49:34.053Z,8.57
2019-03-26T10:54:38.219Z,8.67
2019-03-26T10:59:41.769Z,8.53
2019-03-26T11:04:45.569Z,8.63
2019-03-26T11:09:49.050Z,8.61
2019-03-26T11:14:53.260Z,8.53
2019-03-26T11:19:56.650Z,8.56
2019-03-26T11:24:59.731Z,8.77
2019-03-26T11:30:04.107Z,8.71
2019-03-26T11:35:08.824Z,8.78
2019-03-26T11:40:12.955Z,9.14
2019-03-26T11:45:17.258Z,9.11
2019-03-26T11:50:20.728Z,9.02
2019-03-26T11:55:24.868Z,9.27
2019-03-26T12:00:31.747Z,9.58
2019-03-26T12:05:35.568Z,9.38
2019-03-26T12:10:39.052Z,8.94
2019-03-26T12:15:43.261Z,9.18
2019-03-26T12:20:48.230Z,9.36
2019-03-26T12:25:52.099Z,9.47
2019-03-26T12:30:55.701Z,10.04
2019-03-26T12:35:59.120Z,10.94
2019-03-26T12:41:03.296Z,10.34
2019-03-26T12:46:07.132Z,10.20
2019-03-26T12:51:11.418Z,9.84
2019-03-26T12:56:15.243Z,10.05
2019-03-26T13:01:18.655Z,10.23
2019-03-26T13:06:22.548Z,11.50
2019-03-26T13:11:26.431Z,10.49
2019-03-26T13:16:30.516Z,9.88
2019-03-26T13:21:37.335Z,9.43
2019-03-26T13:26:39.877Z,9.56
2019-03-26T13:31:43.962Z,9.72
2019-03-26T13:36:47.473Z,9.75
2019-03-26T13:41:51.306Z,9.57
2019-03-26T13:46:55.528Z,9.64
2019-03-26T13:51:59.062Z,9.40
2019-03-26T13:57:02.886Z,9.11
2019-03-26T14:02:06.694Z,9.06
2019-03-26T14:07:10.679Z,8.90
2019-03-26T14:12:14.636Z,8.92
2019-03-26T14:17:18.151Z,8.96
2019-03-26T14:22:22.384Z,8.85
2019-03-26T14:27:25.436Z,8.81
2019-03-26T14:32:28.878Z,8.99
2019-03-26T14:37:32.763Z,8.83
2019-03-26T14:42:36.930Z,8.97
2019-03-26T14:47:40.527Z,8.94
2019-03-26T14:52:44.018Z,8.95
2019-03-26T14:57:47.545Z,9.12
2019-03-26T15:02:51.659Z,8.92
2019-03-26T15:07:55.206Z,8.95
2019-03-26T15:12:59.016Z,9.01
2019-03-26T15:18:02.632Z,8.92
2019-03-26T15:23:06.827Z,8.89
2019-03-26T15:28:11.883Z,9.07
2019-03-26T15:33:16.385Z,8.94
2019-03-26T15:38:20.259Z,9.03
2019-03-26T15:43:24.302Z,9.24
2019-03-26T15:48:27.432Z,9.26
2019-03-26T15:53:30.905Z,9.25
2019-03-26T15:58:34.754Z,9.14
2019-03-26T16:03:38.999Z,9.12
2019-03-26T16:08:43.193Z,9.43
2019-03-26T16:13:47.482Z,9.11
2019-03-26T16:18:51.592Z,9.16
2019-03-26T16:23:55.764Z,8.79
2019-03-26T16:28:59.623Z,8.91
2019-03-26T16:34:03.293Z,8.88
2019-03-26T16:39:08.038Z,8.78
2019-03-26T16:44:11.926Z,8.55
2019-03-26T16:49:15.724Z,8.58
2019-03-26T16:54:20.016Z,8.66
2019-03-26T16:59:24.188Z,8.63
2019-03-26T17:04:28.024Z,8.71
2019-03-26T17:09:38.033Z,8.65
2019-03-26T17:14:42.009Z,8.59
2019-03-26T17:19:46.318Z,8.69
2019-03-26T17:24:50.365Z,8.57
2019-03-26T17:29:55.436Z,9.25
2019-03-26T17:35:01.050Z,8.74
2019-03-26T17:40:05.668Z,8.63
2019-03-26T17:45:10.263Z,8.66
2019-03-26T17:50:14.366Z,8.29
2019-03-26T17:55:18.336Z,8.22
2019-03-26T18:00:37.064Z,8.00
2019-03-26T18:05:46.519Z,7.84
2019-03-26T18:10:51.514Z,8.07
2019-03-26T18:16:08.406Z,8.19
2019-03-26T18:21:13.874Z,8.21
2019-03-26T18:26:19.031Z,8.18
2019-03-26T18:31:22.983Z,8.13
2019-03-26T18:36:27.575Z,8.09
2019-03-26T18:41:34.112Z,8.00
2019-03-26T18:46:46.936Z,8.08
2019-03-26T18:51:55.865Z,8.07
2019-03-26T18:57:01.323Z,8.01
2019-03-26T19:02:08.421Z,7.98
2019-03-26T19:07:12.257Z,7.85
2019-03-26T19:12:15.968Z,7.96
2019-03-26T19:17:21.007Z,7.90
2019-03-26T19:22:30.444Z,7.95
2019-03-26T19:27:35.384Z,7.97
2019-03-26T19:32:40.625Z,7.86
2019-03-26T19:37:44.539Z,7.93
2019-03-26T19:42:48.347Z,7.86
2019-03-26T19:47:52.627Z,7.89
2019-03-26T19:53:01.430Z,7.83
2019-03-26T19:58:07.430Z,7.80
2019-03-26T20:03:12.178Z,7.77
2019-03-26T20:08:17.008Z,7.69
2019-03-26T20:13:24.543Z,7.92
2019-03-26T20:18:32.995Z,7.82
2019-03-26T20:23:41.027Z,7.81
2019-03-26T20:28:47.536Z,7.87
2019-03-26T20:33:54.121Z,7.77
2019-03-26T20:38:58.747Z,7.71
2019-03-26T20:44:02.258Z,7.74
2019-03-26T20:49:06.145Z,7.80
2019-03-26T20:54:12.916Z,7.81
2019-03-26T20:59:17.202Z,7.86
2019-03-26T21:04:22.351Z,7.80
2019-03-26T21:09:27.047Z,7.74
2019-03-26T21:14:31.080Z,7.71
2019-03-26T21:19:34.672Z,7.73
2019-03-26T21:24:39.250Z,7.67
2019-03-26T21:29:43.506Z,7.57
2019-03-26T21:34:48.010Z,7.55
2019-03-26T21:39:51.844Z,7.48
2019-03-26T21:44:55.353Z,7.40
2019-03-26T21:49:58.886Z,7.43
2019-03-26T21:55:02.700Z,7.40
2019-03-26T22:00:08.799Z,7.28
2019-03-26T22:05:12.617Z,7.41
2019-03-26T22:10:16.609Z,7.41
2019-03-26T22:15:20.459Z,7.44
2019-03-26T22:20:24.772Z,7.42
2019-03-26T22:25:29.166Z,7.36
2019-03-26T22:30:32.755Z,7.34
2019-03-26T22:35:36.570Z,7.38
2019-03-26T22:40:40.703Z,7.47
2019-03-26T22:45:44.444Z,7.38
2019-03-26T22:50:48.664Z,7.36
2019-03-26T22:55:52.426Z,7.47
2019-03-26T23:00:56.458Z,7.48
2019-03-26T23:06:00.275Z,7.47
2019-03-26T23:11:03.825Z,7.46
2019-03-26T23:16:08.125Z,7.34
2019-03-26T23:21:11.254Z,7.34
2019-03-26T23:26:15.168Z,7.48
2019-03-26T23:31:18.693Z,7.61
2019-03-26T23:36:22.660Z,7.52
2019-03-26T23:41:26.778Z,7.52
2019-03-26T23:46:30.677Z,7.58
2019-03-26T23:51:34.897Z,7.52
2019-03-26T23:56:38.847Z,7.55
